Terminal Aerodrome Forecast
Issued by NWS

Home | Current Version | Previous Version | Text Only | Print | Product List | Glossary On
Versions: 1 2 3 4 5 6 7 8 9 10 11 12 13 14 15 16 17 18 19 20 21 22
000
FTUS42 KFFC 221900 AAA
TAFFTY
TAF AMD
KFTY 221948Z 2220/2318 31008KT P6SM VCSH SCT040
     FM230100 28003KT P6SM FEW070 SCT250
     FM231500 32007KT P6SM SCT040=

USA.gov is the U.S. government's official web portal to all federal, state and local government web resources and services.